CYWY

Wrigley Airport

Wrigley, Northwest Territories, Canada
METAR CYWY 171600Z VRB02KT 15SM BKN120 BKN250 12/09 A2966 RMK AC5CI2 SLP052 DENSITY ALT 500FT
Observed Flight Rules
Aug-17 @ 16:00 UTC (52 minutes ago) Visual Flight Rules
Wind Visibility Clouds
Variable at 2 knots 15 miles
  • Broken at 12,000' AGL
  • Broken at 25,000' AGL
Temperatures Readings
Current 12°C / 54°F
Dewpoint 9°C / 48°F
Humidity 82%
Altimeter 29.66" Hg
Pressure 1005.2 hPa
Elevation 150
METAR CYWY 171600Z VRB02KT 15SM BKN120 BKN250 12/09 A2966 RMK AC5CI2 SLP052 DENSITY ALT 500FT
Observed Flight Rules
Aug-17 @ 16:00 UTC
(52 minutes ago)
VFR
Wind Visibility
Variable at 2 knots 15 miles
Clouds
  • Broken at 12,000' AGL
  • Broken at 25,000' AGL
Temperature Dewpoint
12°C / 54°F 9°C / 48°F
Humidity Altimeter Pressure
82% 29.66" Hg 1005.2 hPa